Run Long — V3DI3 — position and weather

sailwx.info

Track history (hours):
 
Tides and Currents Weather Stations Pressure Air Temp Water Temp Dewpoint Dewpoint Depression Visibility Wind Speed Wind Dir Waves Ship Positions

Run Long

Last reported at 2017-Nov-18 01:11 UTC. Time now 2017-Nov-18 21:14 UTC.
Position N 34°35' E 134°53'.

Length 79 m; draft 5.1 m.

Type: Cargo ship. MMSI: 312999000.

Date/timePositionNaut miles runAvg speedWind from/ knotsBaromVisibWave heightAir tempDewpointWater temp
2017-Nov-18 01:11N 34°35' E 134°53'311.6
2017-Nov-18 00:56N 34°37' E 134°56'510.6
2017-Nov-18 00:30N 34°37' E 135°02'4 9.0
2017-Nov-18 00:00N 34°33' E 135°05'510.0
2017-Nov-17 23:30N 34°28' E 135°04'510.1
2017-Nov-17 22:58N 34°23' E 135°02'610.1
2017-Nov-17 22:25N 34°18' E 134°60'410.5
2017-Nov-17 22:00N 34°14' E 134°59'5 9.2
2017-Nov-17 21:30N 34°09' E 134°59'5 9.4
2017-Nov-17 21:00N 34°04' E 134°59'225 7.1
2017-Nov-16 13:05N 34°55' E 139°26'1 8.9
2017-Nov-16 12:55N 34°56' E 139°27'4 8.9
2017-Nov-16 12:30N 34°58' E 139°31'5 9.1
2017-Nov-16 12:00N 35°01' E 139°35'5 9.1
2017-Nov-16 11:29N 35°04' E 139°39'4 9.3
2017-Nov-16 11:00N 35°07' E 139°43'5 9.7
2017-Nov-16 10:30N 35°12' E 139°46'510.2
2017-Nov-16 10:00N 35°17' E 139°45'5 9.6
2017-Nov-16 09:30N 35°21' E 139°42'5 9.2
2017-Nov-16 09:00N 35°25' E 139°44'510.0
2017-Nov-16 08:30N 35°28' E 139°49'5 9.0
2017-Nov-16 08:00N 35°33' E 139°51'4 8.6
2017-Nov-16 07:30N 35°36' E 139°47'1 0.0
2017-Nov-14 09:49N 35°37' E 139°48'0 0.5
2017-Nov-14 09:26N 35°37' E 139°48'3 6.6
2017-Nov-14 09:01N 35°34' E 139°49'5 9.2
2017-Nov-14 08:27N 35°33' E 139°55'4 9.7
2017-Nov-14 08:00N 35°34' E 140°00'  
2017-Nov-10 20:17N 35°34' E 139°59'3 9.7
2017-Nov-10 19:58N 35°32' E 139°56'4 9.9
2017-Nov-10 19:30N 35°29' E 139°52'5 9.6
2017-Nov-10 19:00N 35°25' E 139°48'5 9.4
2017-Nov-10 18:30N 35°21' E 139°45'4 8.0
2017-Nov-10 18:00N 35°17' E 139°45'4 7.9
2017-Nov-10 17:30N 35°13' E 139°47'4 9.1
2017-Nov-10 17:00N 35°09' E 139°46'5 9.2
2017-Nov-10 16:30N 35°05' E 139°44'5 9.6
2017-Nov-10 15:58N 35°02' E 139°39'510.2
2017-Nov-10 15:30N 34°59' E 139°34'510.1
2017-Nov-10 15:00N 34°56' E 139°29'  
Track history (hours):
 
Tides and Currents Weather Stations Pressure Air Temp Water Temp Dewpoint Dewpoint Depression Visibility Wind Speed Wind Dir Waves Ship Positions

Run Long

Last reported at 2017-Nov-18 01:11 UTC. Time now 2017-Nov-18 21:14 UTC.
Position N 34°35' E 134°53'.

Length 79 m; draft 5.1 m.

Type: Cargo ship. MMSI: 312999000.

Date/timePositionNaut miles runAvg speedWind from/ knotsBaromVisibWave heightAir tempDewpointWater temp
2017-Nov-18 01:11N 34°35' E 134°53'311.6
2017-Nov-18 00:56N 34°37' E 134°56'510.6
2017-Nov-18 00:30N 34°37' E 135°02'4 9.0
2017-Nov-18 00:00N 34°33' E 135°05'510.0
2017-Nov-17 23:30N 34°28' E 135°04'510.1
2017-Nov-17 22:58N 34°23' E 135°02'610.1
2017-Nov-17 22:25N 34°18' E 134°60'410.5
2017-Nov-17 22:00N 34°14' E 134°59'5 9.2
2017-Nov-17 21:30N 34°09' E 134°59'5 9.4
2017-Nov-17 21:00N 34°04' E 134°59'225 7.1
2017-Nov-16 13:05N 34°55' E 139°26'1 8.9
2017-Nov-16 12:55N 34°56' E 139°27'4 8.9
2017-Nov-16 12:30N 34°58' E 139°31'5 9.1
2017-Nov-16 12:00N 35°01' E 139°35'5 9.1
2017-Nov-16 11:29N 35°04' E 139°39'4 9.3
2017-Nov-16 11:00N 35°07' E 139°43'5 9.7
2017-Nov-16 10:30N 35°12' E 139°46'510.2
2017-Nov-16 10:00N 35°17' E 139°45'5 9.6
2017-Nov-16 09:30N 35°21' E 139°42'5 9.2
2017-Nov-16 09:00N 35°25' E 139°44'510.0
2017-Nov-16 08:30N 35°28' E 139°49'5 9.0
2017-Nov-16 08:00N 35°33' E 139°51'4 8.6
2017-Nov-16 07:30N 35°36' E 139°47'1 0.0
2017-Nov-14 09:49N 35°37' E 139°48'0 0.5
2017-Nov-14 09:26N 35°37' E 139°48'3 6.6
2017-Nov-14 09:01N 35°34' E 139°49'5 9.2
2017-Nov-14 08:27N 35°33' E 139°55'4 9.7
2017-Nov-14 08:00N 35°34' E 140°00'  
2017-Nov-10 20:17N 35°34' E 139°59'3 9.7
2017-Nov-10 19:58N 35°32' E 139°56'4 9.9
2017-Nov-10 19:30N 35°29' E 139°52'5 9.6
2017-Nov-10 19:00N 35°25' E 139°48'5 9.4
2017-Nov-10 18:30N 35°21' E 139°45'4 8.0
2017-Nov-10 18:00N 35°17' E 139°45'4 7.9
2017-Nov-10 17:30N 35°13' E 139°47'4 9.1
2017-Nov-10 17:00N 35°09' E 139°46'5 9.2
2017-Nov-10 16:30N 35°05' E 139°44'5 9.6
2017-Nov-10 15:58N 35°02' E 139°39'510.2
2017-Nov-10 15:30N 34°59' E 139°34'510.1
2017-Nov-10 15:00N 34°56' E 139°29'  

Dump ship's entire track history